createdAt,value
2023-11-18T00:03:21.257Z,1.00
2023-11-18T00:08:22.788Z,0.82
2023-11-18T00:13:24.364Z,0.80
2023-11-18T00:18:25.921Z,1.13
2023-11-18T00:23:30.213Z,1.38
2023-11-18T00:28:31.779Z,1.08
2023-11-18T00:33:33.410Z,1.00
2023-11-18T00:38:34.983Z,0.90
2023-11-18T00:43:36.535Z,1.38
2023-11-18T00:48:38.041Z,1.27
2023-11-18T00:53:40.196Z,0.82
2023-11-18T00:58:41.830Z,1.60
2023-11-18T01:03:43.463Z,1.05
2023-11-18T01:08:45.618Z,0.77
2023-11-18T01:13:47.946Z,1.10
2023-11-18T01:18:50.022Z,0.70
2023-11-18T01:23:51.679Z,0.73
2023-11-18T01:28:53.211Z,0.90
2023-11-18T01:33:56.285Z,0.98
2023-11-18T01:44:00.236Z,1.00
2023-11-18T01:49:01.762Z,0.60
2023-11-18T01:54:03.324Z,0.70
2023-11-18T01:59:07.685Z,0.70
2023-11-18T02:04:09.359Z,0.85
2023-11-18T02:09:10.903Z,0.63
2023-11-18T02:14:14.720Z,0.90
2023-11-18T02:19:20.742Z,0.73
2023-11-18T02:24:31.829Z,0.80
2023-11-18T02:29:38.357Z,0.60
2023-11-18T02:34:41.555Z,0.77
2023-11-18T02:39:44.717Z,0.57
2023-11-18T02:44:46.520Z,0.77
2023-11-18T02:49:54.468Z,0.95
2023-11-18T02:54:56.083Z,0.70
2023-11-18T03:00:01.154Z,1.27
2023-11-18T03:05:02.757Z,1.77
2023-11-18T03:10:10.684Z,1.33
2023-11-18T03:15:12.895Z,1.13
2023-11-18T03:20:17.773Z,1.42
2023-11-18T03:25:20.598Z,1.50
2023-11-18T03:30:22.179Z,1.10
2023-11-18T03:35:25.488Z,1.40
2023-11-18T03:40:29.907Z,1.40
2023-11-18T03:45:31.653Z,1.10
2023-11-18T03:50:33.829Z,1.50
2023-11-18T03:55:35.367Z,1.38
2023-11-18T04:00:36.948Z,1.40
2023-11-18T04:05:40.116Z,1.30
2023-11-18T04:10:41.664Z,1.30
2023-11-18T04:15:43.166Z,1.35
2023-11-18T04:20:44.663Z,1.60
2023-11-18T04:25:46.209Z,1.70
2023-11-18T04:30:47.748Z,2.25
2023-11-18T04:35:49.289Z,2.45
2023-11-18T04:40:50.821Z,2.58
2023-11-18T04:45:53.819Z,2.97
2023-11-18T04:50:55.365Z,2.63
2023-11-18T04:55:56.902Z,2.63
2023-11-18T05:00:58.404Z,3.08
2023-11-18T05:05:59.919Z,3.10
2023-11-18T05:11:01.547Z,2.70
2023-11-18T05:16:04.453Z,3.80
2023-11-18T05:21:06.552Z,3.17
2023-11-18T05:26:08.233Z,3.47
2023-11-18T05:31:09.809Z,2.50
2023-11-18T05:36:12.564Z,2.10
2023-11-18T05:41:18.024Z,1.75
2023-11-18T05:46:23.888Z,1.67
2023-11-18T05:51:26.479Z,1.83
2023-11-18T05:56:28.031Z,1.92
2023-11-18T06:01:30.132Z,2.25
2023-11-18T06:06:33.133Z,2.25
2023-11-18T06:16:41.424Z,2.80
2023-11-18T06:21:44.374Z,2.22
2023-11-18T06:26:45.900Z,1.88
2023-11-18T06:31:48.064Z,2.20
2023-11-18T06:36:49.660Z,1.70
2023-11-18T06:41:51.800Z,1.65
2023-11-18T06:46:53.480Z,1.65
2023-11-18T06:51:55.034Z,2.50
2023-11-18T06:56:57.461Z,3.10
2023-11-18T07:01:59.322Z,3.15
2023-11-18T07:07:00.866Z,3.10
2023-11-18T07:12:02.677Z,3.03
2023-11-18T07:17:05.823Z,4.20
2023-11-18T07:22:07.794Z,5.63
2023-11-18T07:27:12.424Z,5.40
2023-11-18T07:32:15.013Z,5.50
2023-11-18T07:37:17.581Z,5.47
2023-11-18T07:42:19.263Z,6.65
2023-11-18T07:47:22.516Z,7.95
2023-11-18T07:52:24.058Z,9.80
2023-11-18T07:57:25.564Z,8.70
2023-11-18T08:02:27.174Z,10.85
2023-11-18T08:07:28.733Z,12.63
2023-11-18T08:12:30.788Z,11.55
2023-11-18T08:17:32.407Z,11.52
2023-11-18T08:22:34.729Z,10.55
2023-11-18T08:27:36.708Z,12.27
2023-11-18T08:32:39.447Z,12.23
2023-11-18T08:37:41.904Z,13.98
2023-11-18T08:42:50.657Z,17.42
2023-11-18T08:47:54.235Z,21.85
2023-11-18T08:52:59.675Z,20.75
2023-11-18T08:58:04.827Z,21.95
2023-11-18T09:03:06.574Z,21.85
2023-11-18T09:08:08.220Z,21.73
2023-11-18T09:13:13.062Z,20.73
2023-11-18T09:18:14.659Z,21.55
2023-11-18T09:23:18.785Z,21.95
2023-11-18T09:28:25.443Z,20.75
2023-11-18T09:33:29.838Z,24.67
2023-11-18T09:38:33.574Z,21.83
2023-11-18T09:43:43.501Z,21.58
2023-11-18T09:48:48.344Z,22.17
2023-11-18T09:53:54.700Z,22.38
2023-11-18T09:59:08.412Z,20.67
2023-11-18T10:04:11.996Z,19.98
2023-11-18T10:09:16.983Z,20.05
2023-11-18T10:14:18.576Z,19.20
2023-11-18T10:19:20.122Z,18.75
2023-11-18T10:24:21.724Z,18.42
2023-11-18T10:29:25.457Z,19.77
2023-11-18T10:34:29.112Z,19.77
2023-11-18T10:39:33.463Z,21.63
2023-11-18T10:44:34.977Z,21.13
2023-11-18T10:49:39.385Z,22.02
2023-11-18T10:54:55.303Z,20.83
2023-11-18T11:05:03.389Z,19.58
2023-11-18T11:10:05.641Z,19.13
2023-11-18T11:15:22.524Z,21.80
2023-11-18T11:20:32.281Z,20.63
2023-11-18T11:25:46.334Z,22.77
2023-11-18T11:30:51.707Z,19.88
2023-11-18T11:35:58.549Z,21.55
2023-11-18T11:41:01.891Z,18.45
2023-11-18T11:46:12.190Z,18.38
2023-11-18T11:51:31.049Z,18.42
2023-11-18T11:56:45.086Z,19.52
2023-11-18T12:01:48.634Z,20.02
2023-11-18T12:06:56.894Z,19.42
2023-11-18T12:12:03.920Z,18.77
2023-11-18T12:17:10.492Z,19.88
2023-11-18T12:22:19.289Z,20.17
2023-11-18T12:27:41.119Z,18.27
2023-11-18T12:33:00.678Z,19.50
2023-11-18T12:38:46.600Z,19.52
2023-11-18T12:43:59.162Z,17.35
2023-11-18T12:49:02.094Z,19.55
2023-11-18T12:54:03.910Z,17.40
2023-11-18T12:59:07.716Z,18.30
2023-11-18T13:04:10.104Z,17.95
2023-11-18T13:09:12.045Z,18.77
2023-11-18T13:14:13.665Z,17.05
2023-11-18T13:19:29.731Z,16.73
2023-11-18T13:24:33.060Z,20.70
2023-11-18T13:29:35.791Z,16.75
2023-11-18T13:34:40.688Z,17.65
2023-11-18T13:39:43.797Z,17.33
2023-11-18T13:49:47.182Z,19.70
2023-11-18T13:54:49.122Z,17.60
2023-11-18T13:59:51.277Z,17.67
2023-11-18T14:04:56.598Z,16.20
2023-11-18T14:09:58.343Z,15.77
2023-11-18T14:14:59.853Z,18.65
2023-11-18T14:20:01.384Z,15.98
2023-11-18T14:25:07.177Z,14.32
2023-11-18T14:30:10.556Z,15.68
2023-11-18T14:35:12.844Z,17.80
2023-11-18T14:40:15.415Z,15.65
2023-11-18T14:45:17.443Z,15.70
2023-11-18T14:50:22.148Z,15.20
2023-11-18T14:55:23.835Z,15.77
2023-11-18T15:00:29.117Z,17.20
2023-11-18T15:05:32.046Z,16.27
2023-11-18T15:10:33.995Z,16.02
2023-11-18T15:15:36.456Z,16.60
2023-11-18T15:25:45.891Z,18.92
2023-11-18T15:30:47.447Z,18.30
2023-11-18T15:35:49.010Z,16.17
2023-11-18T15:40:53.317Z,18.83
2023-11-18T15:45:59.294Z,16.20
2023-11-18T15:51:01.102Z,16.80
2023-11-18T15:56:02.946Z,17.48
2023-11-18T16:01:05.612Z,16.58
2023-11-18T16:06:07.336Z,15.82
2023-11-18T16:11:11.519Z,14.48
2023-11-18T16:16:18.446Z,15.43
2023-11-18T16:21:19.960Z,13.48
2023-11-18T16:26:21.621Z,11.80
2023-11-18T16:31:23.708Z,9.75
2023-11-18T16:36:26.442Z,9.45
2023-11-18T16:41:41.074Z,8.70
2023-11-18T16:46:47.470Z,11.55
2023-11-18T16:51:55.089Z,8.60
2023-11-18T17:02:02.546Z,9.23
2023-11-18T17:07:04.457Z,9.60
2023-11-18T17:12:06.663Z,10.45
2023-11-18T17:17:09.689Z,8.73
2023-11-18T17:22:11.665Z,8.48
2023-11-18T17:27:13.214Z,10.75
2023-11-18T17:32:14.761Z,10.98
2023-11-18T17:37:16.449Z,10.10
2023-11-18T17:42:17.945Z,9.27
2023-11-18T17:47:20.366Z,9.07
2023-11-18T17:52:21.916Z,11.43
2023-11-18T17:57:24.204Z,10.23
2023-11-18T18:02:25.892Z,10.10
2023-11-18T18:07:28.903Z,9.75
2023-11-18T18:12:31.159Z,8.07
2023-11-18T18:17:35.131Z,8.13
2023-11-18T18:22:39.986Z,7.97
2023-11-18T18:27:42.208Z,8.35
2023-11-18T18:32:43.986Z,8.45
2023-11-18T18:37:45.677Z,6.65
2023-11-18T18:42:47.280Z,7.55
2023-11-18T18:47:49.616Z,8.32
2023-11-18T18:52:53.802Z,7.50
2023-11-18T18:57:55.353Z,7.35
2023-11-18T19:02:57.039Z,6.07
2023-11-18T19:07:59.117Z,6.28
2023-11-18T19:13:01.285Z,5.63
2023-11-18T19:18:03.633Z,6.18
2023-11-18T19:23:05.175Z,5.53
2023-11-18T19:28:10.164Z,5.78
2023-11-18T19:33:14.343Z,5.90
2023-11-18T19:38:15.901Z,4.25
2023-11-18T19:43:17.505Z,5.07
2023-11-18T19:48:19.462Z,4.32
2023-11-18T19:53:23.920Z,5.50
2023-11-18T19:58:25.480Z,3.70
2023-11-18T20:03:27.058Z,5.38
2023-11-18T20:08:28.617Z,4.30
2023-11-18T20:13:30.298Z,4.47
2023-11-18T20:18:33.522Z,3.92
2023-11-18T20:23:35.880Z,4.40
2023-11-18T20:28:39.954Z,4.32
2023-11-18T20:33:43.265Z,3.55
2023-11-18T20:38:45.179Z,3.95
2023-11-18T20:43:47.750Z,3.20
2023-11-18T20:48:50.216Z,3.30
2023-11-18T20:53:51.840Z,3.22
2023-11-18T20:58:53.373Z,2.10
2023-11-18T21:03:55.154Z,3.20
2023-11-18T21:08:56.770Z,2.00
2023-11-18T21:13:58.668Z,2.08
2023-11-18T21:19:01.896Z,2.35
2023-11-18T21:24:04.508Z,2.22
2023-11-18T21:29:06.075Z,2.35
2023-11-18T21:34:07.586Z,2.42
2023-11-18T21:39:15.276Z,2.60
2023-11-18T21:44:16.801Z,2.30
2023-11-18T21:49:18.335Z,2.22
2023-11-18T21:54:19.827Z,2.20
2023-11-18T21:59:21.367Z,2.15
2023-11-18T22:04:23.143Z,2.28
2023-11-18T22:09:25.221Z,1.75
2023-11-18T22:14:26.859Z,1.80
2023-11-18T22:19:29.238Z,1.45
2023-11-18T22:24:30.780Z,1.40
2023-11-18T22:29:32.303Z,1.35
2023-11-18T22:34:36.303Z,1.50
2023-11-18T22:39:37.808Z,1.20
2023-11-18T22:44:39.360Z,1.70
2023-11-18T22:49:41.779Z,1.30
2023-11-18T22:54:45.269Z,1.55
2023-11-18T22:59:47.556Z,1.02
2023-11-18T23:04:49.321Z,1.30
2023-11-18T23:09:50.818Z,1.30
2023-11-18T23:14:53.491Z,1.83
2023-11-18T23:19:55.583Z,1.55
2023-11-18T23:24:57.157Z,1.50
2023-11-18T23:29:58.738Z,1.90
2023-11-18T23:35:01.898Z,1.67
2023-11-18T23:40:06.723Z,1.70
2023-11-18T23:45:09.003Z,1.60
2023-11-18T23:50:12.099Z,1.70
